Amado, Arizona
Current Conditions -  °F | °C
As of 10:54 AM on Sunday 21 Dec 2014 (Local Time) from KOLS Reporting Station
Clear Clear  
Wind Chill: 12°   Ceiling: Unl
Heat Index: 12°   Visibility: 10mi
Dew Point: -2°   Wind: 0mph
Humidity: 40%   Direction: NA
Pressure: 30.13"   Gusts: NA
Location:  31.71°N, 111.07°W
Report Text: KOLS 211754Z AUTO 00000KT 10SM CLR 12/M02 A3013 RMK AO2 SLP183 T01171017 10117 20000 53001
Loading
Personal Weather Stations






























Interactive Weather Map New forecast layout! Learn more

10-Day Weather Forecast

Advertisements
Track Severe Weather on mobile